createdAt,value
2022-08-26T00:00:12.487Z,1006.32
2022-08-26T00:01:12.461Z,1006.34
2022-08-26T00:02:12.581Z,1006.31
2022-08-26T00:03:12.459Z,1006.33
2022-08-26T00:04:12.508Z,1006.28
2022-08-26T00:05:12.420Z,1006.31
2022-08-26T00:06:12.412Z,1006.32
2022-08-26T00:07:12.400Z,1006.31
2022-08-26T00:08:13.111Z,1006.34
2022-08-26T00:09:12.381Z,1006.32
2022-08-26T00:10:12.361Z,1006.32
2022-08-26T00:11:12.353Z,1006.34
2022-08-26T00:12:12.649Z,1006.34
2022-08-26T00:13:12.362Z,1006.34
2022-08-26T00:14:12.314Z,1006.34
2022-08-26T00:15:12.330Z,1006.37
2022-08-26T00:16:12.359Z,1006.38
2022-08-26T00:17:12.286Z,1006.34
2022-08-26T00:18:16.803Z,1006.36
2022-08-26T00:19:13.263Z,1006.35
2022-08-26T00:20:12.253Z,1006.36
2022-08-26T00:21:12.265Z,1006.41
2022-08-26T00:22:12.226Z,1006.35
2022-08-26T00:23:12.225Z,1006.39
2022-08-26T00:24:12.206Z,1006.39
2022-08-26T00:25:12.206Z,1006.41
2022-08-26T00:26:12.204Z,1006.39
2022-08-26T00:27:12.197Z,1006.38
2022-08-26T00:28:12.166Z,1006.39
2022-08-26T00:29:12.156Z,1006.42
2022-08-26T00:30:12.169Z,1006.37
2022-08-26T00:31:12.131Z,1006.41
2022-08-26T00:32:12.146Z,1006.41
2022-08-26T00:33:12.109Z,1006.41
2022-08-26T00:34:12.122Z,1006.37
2022-08-26T00:35:12.104Z,1006.38
2022-08-26T00:36:19.950Z,1006.36
2022-08-26T00:37:16.144Z,1006.36
2022-08-26T00:38:12.050Z,1006.40
2022-08-26T00:39:12.047Z,1006.37
2022-08-26T00:40:12.061Z,1006.33
2022-08-26T00:41:12.018Z,1006.28
2022-08-26T00:42:12.032Z,1006.33
2022-08-26T00:43:11.999Z,1006.31
2022-08-26T00:44:11.990Z,1006.25
2022-08-26T00:45:11.971Z,1006.26
2022-08-26T00:46:11.991Z,1006.27
2022-08-26T00:47:11.981Z,1006.26
2022-08-26T00:48:11.941Z,1006.24
2022-08-26T00:49:12.513Z,1006.28
2022-08-26T00:50:11.923Z,1006.27
2022-08-26T00:51:11.911Z,1006.27
2022-08-26T00:52:13.138Z,1006.29
2022-08-26T00:53:11.886Z,1006.32
2022-08-26T00:54:11.883Z,1006.29
2022-08-26T00:55:11.862Z,1006.30
2022-08-26T00:56:13.293Z,1006.25
2022-08-26T00:57:15.938Z,1006.28
2022-08-26T00:58:11.856Z,1006.28
2022-08-26T00:59:11.825Z,1006.29
2022-08-26T01:00:11.811Z,1006.27
2022-08-26T01:01:11.825Z,1006.29
2022-08-26T01:02:21.236Z,1006.29
2022-08-26T01:03:12.854Z,1006.33
2022-08-26T01:04:11.764Z,1006.32
2022-08-26T01:05:11.755Z,1006.32
2022-08-26T01:06:13.025Z,1006.32
2022-08-26T01:07:11.736Z,1006.32
2022-08-26T01:08:11.766Z,1006.33
2022-08-26T01:09:11.706Z,1006.31
2022-08-26T01:10:11.705Z,1006.29
2022-08-26T01:11:11.696Z,1006.33
2022-08-26T01:12:11.675Z,1006.27
2022-08-26T01:13:11.668Z,1006.31
2022-08-26T01:14:11.676Z,1006.29
2022-08-26T01:15:11.647Z,1006.26
2022-08-26T01:16:11.643Z,1006.28
2022-08-26T01:17:11.628Z,1006.27
2022-08-26T01:18:11.635Z,1006.24
2022-08-26T01:19:11.617Z,1006.29
2022-08-26T01:20:11.586Z,1006.27
2022-08-26T01:21:11.580Z,1006.27
2022-08-26T01:22:11.569Z,1006.28
2022-08-26T01:23:11.550Z,1006.25
2022-08-26T01:24:11.539Z,1006.29
2022-08-26T01:25:11.556Z,1006.27
2022-08-26T01:26:19.422Z,1006.29
2022-08-26T01:27:12.507Z,1006.26
2022-08-26T01:28:11.522Z,1006.26
2022-08-26T01:29:11.494Z,1006.24
2022-08-26T01:30:11.488Z,1006.25
2022-08-26T01:31:11.529Z,1006.25
2022-08-26T01:32:11.452Z,1006.22
2022-08-26T01:33:11.442Z,1006.28
2022-08-26T01:34:11.456Z,1006.26
2022-08-26T01:35:11.421Z,1006.30
2022-08-26T01:36:11.411Z,1006.32
2022-08-26T01:37:14.682Z,1006.30
2022-08-26T01:38:11.393Z,1006.32
2022-08-26T01:39:11.395Z,1006.34
2022-08-26T01:40:11.432Z,1006.34
2022-08-26T01:41:16.134Z,1006.33
2022-08-26T01:42:12.344Z,1006.35
2022-08-26T01:43:11.342Z,1006.38
2022-08-26T01:44:11.344Z,1006.40
2022-08-26T01:45:11.315Z,1006.44
2022-08-26T01:46:11.335Z,1006.44
2022-08-26T01:47:11.284Z,1006.50
2022-08-26T01:48:11.283Z,1006.61
2022-08-26T01:49:11.267Z,1006.61
2022-08-26T01:50:11.289Z,1006.61
2022-08-26T01:51:11.265Z,1006.62
2022-08-26T01:52:11.236Z,1006.58
2022-08-26T01:53:11.491Z,1006.58
2022-08-26T01:54:12.088Z,1006.58
2022-08-26T01:55:11.204Z,1006.58
2022-08-26T01:56:11.215Z,1006.57
2022-08-26T01:57:11.176Z,1006.60
2022-08-26T01:58:11.165Z,1006.68
2022-08-26T01:59:11.156Z,1006.69
2022-08-26T02:00:11.147Z,1006.66
2022-08-26T02:01:11.543Z,1006.67
2022-08-26T02:02:11.134Z,1006.67
2022-08-26T02:03:11.108Z,1006.67
2022-08-26T02:04:11.135Z,1006.66
2022-08-26T02:05:11.086Z,1006.60
2022-08-26T02:06:11.085Z,1006.58
2022-08-26T02:07:11.087Z,1006.63
2022-08-26T02:08:11.057Z,1006.68
2022-08-26T02:09:11.050Z,1006.73
2022-08-26T02:10:11.035Z,1006.65
2022-08-26T02:11:11.018Z,1006.64
2022-08-26T02:12:11.009Z,1006.61
2022-08-26T02:13:11.017Z,1006.72
2022-08-26T02:14:10.994Z,1006.74
2022-08-26T02:15:11.138Z,1006.73
2022-08-26T02:16:11.051Z,1006.71
2022-08-26T02:17:10.950Z,1006.77
2022-08-26T02:18:14.169Z,1006.72
2022-08-26T02:19:11.699Z,1006.67
2022-08-26T02:20:14.799Z,1006.68
2022-08-26T02:21:10.914Z,1006.70
2022-08-26T02:22:10.921Z,1006.69
2022-08-26T02:23:10.911Z,1006.69
2022-08-26T02:24:10.903Z,1006.69
2022-08-26T02:25:10.863Z,1006.71
2022-08-26T02:26:10.860Z,1006.67
2022-08-26T02:27:10.861Z,1006.66
2022-08-26T02:28:10.839Z,1006.63
2022-08-26T02:29:10.828Z,1006.60
2022-08-26T02:30:10.814Z,1006.65
2022-08-26T02:31:10.852Z,1006.64
2022-08-26T02:32:10.833Z,1006.66
2022-08-26T02:33:10.772Z,1006.66
2022-08-26T02:34:10.891Z,1006.58
2022-08-26T02:35:10.753Z,1006.60
2022-08-26T02:36:10.753Z,1006.64
2022-08-26T02:37:10.761Z,1006.61
2022-08-26T02:38:11.243Z,1006.61
2022-08-26T02:39:10.722Z,1006.62
2022-08-26T02:40:10.769Z,1006.58
2022-08-26T02:41:10.687Z,1006.58
2022-08-26T02:42:10.682Z,1006.53
2022-08-26T02:43:10.665Z,1006.53
2022-08-26T02:44:10.662Z,1006.51
2022-08-26T02:45:10.673Z,1006.51
2022-08-26T02:46:10.693Z,1006.60
2022-08-26T02:47:10.640Z,1006.58
2022-08-26T02:48:10.616Z,1006.50
2022-08-26T02:49:10.599Z,1006.55
2022-08-26T02:50:10.586Z,1006.53
2022-08-26T02:51:10.598Z,1006.56
2022-08-26T02:52:10.567Z,1006.51
2022-08-26T02:53:10.555Z,1006.55
2022-08-26T02:54:10.548Z,1006.51
2022-08-26T02:55:10.532Z,1006.54
2022-08-26T02:56:10.560Z,1006.54
2022-08-26T02:57:10.508Z,1006.54
2022-08-26T02:58:10.500Z,1006.48
2022-08-26T02:59:10.518Z,1006.52
2022-08-26T03:00:10.491Z,1006.49
2022-08-26T03:01:10.575Z,1006.48
2022-08-26T03:02:10.522Z,1006.46
2022-08-26T03:03:10.450Z,1006.48
2022-08-26T03:04:10.437Z,1006.51
2022-08-26T03:05:10.440Z,1006.51
2022-08-26T03:06:10.411Z,1006.47
2022-08-26T03:07:10.400Z,1006.47
2022-08-26T03:08:10.390Z,1006.47
2022-08-26T03:09:10.379Z,1006.47
2022-08-26T03:10:11.393Z,1006.45
2022-08-26T03:11:10.353Z,1006.50
2022-08-26T03:12:10.343Z,1006.55
2022-08-26T03:13:10.336Z,1006.53
2022-08-26T03:14:10.323Z,1006.56
2022-08-26T03:15:16.614Z,1006.57
2022-08-26T03:16:11.410Z,1006.55
2022-08-26T03:17:10.296Z,1006.52
2022-08-26T03:18:10.294Z,1006.51
2022-08-26T03:19:10.270Z,1006.49
2022-08-26T03:20:10.337Z,1006.46
2022-08-26T03:21:10.243Z,1006.51
2022-08-26T03:22:10.234Z,1006.54
2022-08-26T03:23:10.398Z,1006.48
2022-08-26T03:24:10.216Z,1006.51
2022-08-26T03:25:10.207Z,1006.50
2022-08-26T03:26:17.266Z,1006.50
2022-08-26T03:27:10.182Z,1006.53
2022-08-26T03:28:10.163Z,1006.47
2022-08-26T03:29:10.154Z,1006.44
2022-08-26T03:30:11.790Z,1006.44
2022-08-26T03:31:10.156Z,1006.45
2022-08-26T03:32:10.654Z,1006.45
2022-08-26T03:33:10.172Z,1006.45
2022-08-26T03:34:11.260Z,1006.43
2022-08-26T03:35:10.107Z,1006.49
2022-08-26T03:36:10.076Z,1006.49
2022-08-26T03:37:10.065Z,1006.48
2022-08-26T03:38:10.055Z,1006.50
2022-08-26T03:39:10.045Z,1006.49
2022-08-26T03:40:10.140Z,1006.48
2022-08-26T03:41:10.023Z,1006.46
2022-08-26T03:42:10.710Z,1006.48
2022-08-26T03:43:10.258Z,1006.52
2022-08-26T03:44:09.996Z,1006.51
2022-08-26T03:45:09.977Z,1006.53
2022-08-26T03:46:10.062Z,1006.55
2022-08-26T03:47:09.958Z,1006.54
2022-08-26T03:48:09.947Z,1006.57
2022-08-26T03:49:09.939Z,1006.53
2022-08-26T03:50:09.927Z,1006.56
2022-08-26T03:51:09.929Z,1006.62
2022-08-26T03:52:09.920Z,1006.54
2022-08-26T03:53:12.706Z,1006.52
2022-08-26T03:54:09.887Z,1006.54
2022-08-26T03:55:09.870Z,1006.50
2022-08-26T03:56:09.859Z,1006.51
2022-08-26T03:57:09.870Z,1006.51
2022-08-26T03:58:09.829Z,1006.54
2022-08-26T03:59:09.830Z,1006.52
2022-08-26T04:00:09.811Z,1006.57
2022-08-26T04:01:09.812Z,1006.57
2022-08-26T04:02:11.689Z,1006.57
2022-08-26T04:03:10.402Z,1006.55
2022-08-26T04:04:09.769Z,1006.64
2022-08-26T04:05:10.760Z,1006.68
2022-08-26T04:06:09.782Z,1006.56
2022-08-26T04:07:09.744Z,1006.58
2022-08-26T04:08:10.044Z,1006.62
2022-08-26T04:09:09.713Z,1006.69
2022-08-26T04:10:09.693Z,1006.67
2022-08-26T04:11:09.692Z,1006.64
2022-08-26T04:12:09.702Z,1006.65
2022-08-26T04:13:09.780Z,1006.63
2022-08-26T04:14:09.653Z,1006.63
2022-08-26T04:15:09.643Z,1006.61
2022-08-26T04:16:10.347Z,1006.62
2022-08-26T04:17:09.652Z,1006.61
2022-08-26T04:18:09.614Z,1006.66
2022-08-26T04:19:09.604Z,1006.62
2022-08-26T04:20:09.587Z,1006.61
2022-08-26T04:21:09.574Z,1006.62
2022-08-26T04:22:09.595Z,1006.59
2022-08-26T04:23:09.605Z,1006.64
2022-08-26T04:24:12.088Z,1006.61
2022-08-26T04:25:09.536Z,1006.63
2022-08-26T04:26:09.515Z,1006.65
2022-08-26T04:27:09.514Z,1006.64
2022-08-26T04:28:09.526Z,1006.60
2022-08-26T04:29:09.514Z,1006.58
2022-08-26T04:30:09.623Z,1006.60
2022-08-26T04:31:09.511Z,1006.61
2022-08-26T04:32:09.456Z,1006.64
2022-08-26T04:33:13.046Z,1006.63
2022-08-26T04:34:09.453Z,1006.62
2022-08-26T04:35:09.427Z,1006.68
2022-08-26T04:36:09.411Z,1006.65
2022-08-26T04:37:09.398Z,1006.67
2022-08-26T04:38:09.389Z,1006.67
2022-08-26T04:39:09.397Z,1006.67
2022-08-26T04:40:09.410Z,1006.67
2022-08-26T04:41:15.693Z,1006.69
2022-08-26T04:42:10.348Z,1006.69
2022-08-26T04:43:09.404Z,1006.64
2022-08-26T04:44:09.328Z,1006.61
2022-08-26T04:45:10.282Z,1006.62
2022-08-26T04:46:09.362Z,1006.64
2022-08-26T04:47:09.288Z,1006.66
2022-08-26T04:48:11.070Z,1006.61
2022-08-26T04:49:09.267Z,1006.67
2022-08-26T04:50:09.290Z,1006.72
2022-08-26T04:51:09.249Z,1006.74
2022-08-26T04:52:09.231Z,1006.71
2022-08-26T04:53:09.385Z,1006.72
2022-08-26T04:54:09.219Z,1006.71
2022-08-26T04:55:09.202Z,1006.73
2022-08-26T04:56:09.332Z,1006.71
2022-08-26T04:57:09.181Z,1006.75
2022-08-26T04:58:10.339Z,1006.77
2022-08-26T04:59:17.178Z,1006.79
2022-08-26T05:00:10.172Z,1006.83
2022-08-26T05:01:09.132Z,1006.79
2022-08-26T05:02:09.167Z,1006.88
2022-08-26T05:03:10.630Z,1006.85
2022-08-26T05:04:09.152Z,1006.91
2022-08-26T05:05:09.082Z,1006.89
2022-08-26T05:06:09.453Z,1006.88
2022-08-26T05:07:09.073Z,1006.83
2022-08-26T05:08:09.054Z,1006.89
2022-08-26T05:09:09.043Z,1006.86
2022-08-26T05:10:09.055Z,1006.90
2022-08-26T05:11:09.442Z,1006.90
2022-08-26T05:12:09.128Z,1006.94
2022-08-26T05:13:11.218Z,1006.95
2022-08-26T05:14:08.992Z,1006.93
2022-08-26T05:15:08.975Z,1006.86
2022-08-26T05:16:09.154Z,1006.92
2022-08-26T05:17:09.259Z,1006.90
2022-08-26T05:18:09.950Z,1006.96
2022-08-26T05:19:08.928Z,1006.92
2022-08-26T05:20:08.924Z,1006.91
2022-08-26T05:21:08.907Z,1006.91
2022-08-26T05:22:08.906Z,1006.92
2022-08-26T05:23:09.096Z,1006.87
2022-08-26T05:24:08.886Z,1006.89
2022-08-26T05:25:08.866Z,1006.92
2022-08-26T05:26:08.859Z,1006.88
2022-08-26T05:27:11.831Z,1006.91
2022-08-26T05:28:08.837Z,1006.86
2022-08-26T05:29:08.817Z,1006.92
2022-08-26T05:30:08.827Z,1006.88
2022-08-26T05:31:08.832Z,1006.91
2022-08-26T05:32:08.808Z,1006.88
2022-08-26T05:33:09.025Z,1006.92
2022-08-26T05:34:08.768Z,1006.94
2022-08-26T05:35:09.079Z,1006.91
2022-08-26T05:36:08.740Z,1006.94
2022-08-26T05:37:08.750Z,1006.95
2022-08-26T05:38:12.449Z,1006.93
2022-08-26T05:39:10.400Z,1006.96
2022-08-26T05:40:08.725Z,1006.96
2022-08-26T05:41:08.690Z,1006.95
2022-08-26T05:42:08.701Z,1006.97
2022-08-26T05:43:08.869Z,1006.99
2022-08-26T05:44:08.661Z,1007.02
2022-08-26T05:45:08.642Z,1007.03
2022-08-26T05:46:08.696Z,1007.08
2022-08-26T05:47:08.643Z,1007.07
2022-08-26T05:48:08.653Z,1007.09
2022-08-26T05:49:12.704Z,1007.10
2022-08-26T05:50:08.596Z,1007.12
2022-08-26T05:51:08.593Z,1007.09
2022-08-26T05:52:08.650Z,1007.08
2022-08-26T05:53:08.662Z,1007.10
2022-08-26T05:54:08.570Z,1007.11
2022-08-26T05:55:08.533Z,1007.10
2022-08-26T05:56:08.523Z,1007.05
2022-08-26T05:57:08.512Z,1007.09
2022-08-26T05:58:08.503Z,1007.09
2022-08-26T05:59:14.285Z,1007.12
2022-08-26T06:00:09.475Z,1007.14
2022-08-26T06:01:08.474Z,1007.18
2022-08-26T06:02:08.475Z,1007.15
2022-08-26T06:03:08.628Z,1007.17
2022-08-26T06:04:08.454Z,1007.16
2022-08-26T06:05:08.424Z,1007.20
2022-08-26T06:06:08.414Z,1007.21
2022-08-26T06:07:10.019Z,1007.24
2022-08-26T06:08:08.414Z,1007.20
2022-08-26T06:09:09.336Z,1007.21
2022-08-26T06:10:30.940Z,1007.29
2022-08-26T06:11:18.274Z,1007.24
2022-08-26T06:12:09.356Z,1007.23
2022-08-26T06:13:11.800Z,1007.27
2022-08-26T06:14:08.357Z,1007.26
2022-08-26T06:15:08.338Z,1007.26
2022-08-26T06:16:08.342Z,1007.28
2022-08-26T06:17:08.287Z,1007.32
2022-08-26T06:18:08.427Z,1007.32
2022-08-26T06:19:10.415Z,1007.33
2022-08-26T06:20:08.280Z,1007.34
2022-08-26T06:21:08.239Z,1007.39
2022-08-26T06:22:08.239Z,1007.34
2022-08-26T06:23:08.307Z,1007.34
2022-08-26T06:24:08.218Z,1007.34
2022-08-26T06:25:08.227Z,1007.35
2022-08-26T06:26:08.196Z,1007.39
2022-08-26T06:27:08.179Z,1007.43
2022-08-26T06:28:08.173Z,1007.43
2022-08-26T06:29:08.176Z,1007.49
2022-08-26T06:30:08.172Z,1007.47
2022-08-26T06:31:08.209Z,1007.47
2022-08-26T06:32:08.820Z,1007.47
2022-08-26T06:33:08.213Z,1007.43
2022-08-26T06:34:10.750Z,1007.45
2022-08-26T06:35:11.945Z,1007.45
2022-08-26T06:36:08.101Z,1007.47
2022-08-26T06:37:08.062Z,1007.42
2022-08-26T06:38:08.054Z,1007.46
2022-08-26T06:39:08.042Z,1007.46
2022-08-26T06:40:08.086Z,1007.49
2022-08-26T06:41:08.043Z,1007.50
2022-08-26T06:42:08.013Z,1007.53
2022-08-26T06:43:08.070Z,1007.57
2022-08-26T06:44:07.992Z,1007.56
2022-08-26T06:45:07.998Z,1007.53
2022-08-26T06:46:08.107Z,1007.55
2022-08-26T06:47:07.953Z,1007.58
2022-08-26T06:48:07.948Z,1007.63
2022-08-26T06:49:08.005Z,1007.59
2022-08-26T06:50:08.082Z,1007.65
2022-08-26T06:51:08.093Z,1007.66
2022-08-26T06:52:07.903Z,1007.66
2022-08-26T06:53:08.057Z,1007.71
2022-08-26T06:54:07.883Z,1007.65
2022-08-26T06:55:07.889Z,1007.62
2022-08-26T06:56:07.857Z,1007.64
2022-08-26T06:57:07.846Z,1007.64
2022-08-26T06:58:07.837Z,1007.64
2022-08-26T06:59:07.880Z,1007.67
2022-08-26T07:00:07.836Z,1007.66
2022-08-26T07:01:11.712Z,1007.64
2022-08-26T07:02:08.139Z,1007.66
2022-08-26T07:03:08.298Z,1007.64
2022-08-26T07:04:10.496Z,1007.67
2022-08-26T07:05:07.788Z,1007.66
2022-08-26T07:06:07.750Z,1007.63
2022-08-26T07:07:07.748Z,1007.65
2022-08-26T07:08:07.727Z,1007.71
2022-08-26T07:09:10.024Z,1007.67
2022-08-26T07:10:07.700Z,1007.70
2022-08-26T07:11:07.736Z,1007.69
2022-08-26T07:12:07.680Z,1007.66
2022-08-26T07:13:08.049Z,1007.72
2022-08-26T07:14:07.661Z,1007.73
2022-08-26T07:15:07.702Z,1007.68
2022-08-26T07:16:07.692Z,1007.74
2022-08-26T07:17:11.074Z,1007.74
2022-08-26T07:18:08.721Z,1007.75
2022-08-26T07:19:10.789Z,1007.73
2022-08-26T07:20:07.611Z,1007.70
2022-08-26T07:21:07.651Z,1007.75
2022-08-26T07:22:08.622Z,1007.72
2022-08-26T07:23:07.714Z,1007.74
2022-08-26T07:24:07.553Z,1007.73
2022-08-26T07:25:07.531Z,1007.78
2022-08-26T07:26:07.531Z,1007.70
2022-08-26T07:27:07.518Z,1007.73
2022-08-26T07:28:07.540Z,1007.75
2022-08-26T07:29:07.494Z,1007.71
2022-08-26T07:30:07.493Z,1007.77
2022-08-26T07:31:09.551Z,1007.80
2022-08-26T07:32:07.466Z,1007.82
2022-08-26T07:33:07.561Z,1007.78
2022-08-26T07:34:07.435Z,1007.80
2022-08-26T07:35:07.421Z,1007.80
2022-08-26T07:36:07.413Z,1007.76
2022-08-26T07:37:08.854Z,1007.79
2022-08-26T07:38:07.424Z,1007.83
2022-08-26T07:39:07.375Z,1007.83
2022-08-26T07:40:07.409Z,1007.84
2022-08-26T07:41:07.365Z,1007.90
2022-08-26T07:42:08.267Z,1007.89
2022-08-26T07:43:07.508Z,1007.89
2022-08-26T07:44:07.335Z,1007.92
2022-08-26T07:45:07.316Z,1007.90
2022-08-26T07:46:07.307Z,1007.90
2022-08-26T07:47:10.264Z,1007.94
2022-08-26T07:48:08.298Z,1007.92
2022-08-26T07:49:07.336Z,1007.96
2022-08-26T07:50:07.263Z,1007.98
2022-08-26T07:51:07.247Z,1007.97
2022-08-26T07:52:07.239Z,1008.03
2022-08-26T07:53:07.414Z,1008.05
2022-08-26T07:54:07.249Z,1008.13
2022-08-26T07:55:07.201Z,1008.10
2022-08-26T07:56:07.189Z,1008.10
2022-08-26T07:57:09.312Z,1008.11
2022-08-26T07:58:07.190Z,1008.10
2022-08-26T07:59:13.675Z,1008.11
2022-08-26T08:00:08.147Z,1008.16
2022-08-26T08:01:07.172Z,1008.14
2022-08-26T08:02:07.204Z,1008.15
2022-08-26T08:03:07.457Z,1008.15
2022-08-26T08:04:07.172Z,1008.13
2022-08-26T08:05:07.124Z,1008.11
2022-08-26T08:06:07.084Z,1008.09
2022-08-26T08:07:07.553Z,1008.14
2022-08-26T08:08:27.871Z,1008.08
2022-08-26T08:09:08.042Z,1008.15
2022-08-26T08:10:11.380Z,1008.15
2022-08-26T08:11:07.022Z,1008.15
2022-08-26T08:12:07.020Z,1008.10
2022-08-26T08:13:07.089Z,1008.11
2022-08-26T08:14:08.476Z,1008.12
2022-08-26T08:15:07.197Z,1008.18
2022-08-26T08:16:06.992Z,1008.11
2022-08-26T08:17:08.087Z,1008.12
2022-08-26T08:18:07.036Z,1008.16
2022-08-26T08:19:07.942Z,1008.21
2022-08-26T08:20:06.925Z,1008.16
2022-08-26T08:21:19.963Z,1008.19
2022-08-26T08:22:17.416Z,1008.20
2022-08-26T08:23:07.886Z,1008.21
2022-08-26T08:24:06.885Z,1008.25
2022-08-26T08:25:08.257Z,1008.25
2022-08-26T08:26:06.886Z,1008.25
2022-08-26T08:27:06.867Z,1008.32
2022-08-26T08:28:06.942Z,1008.27
2022-08-26T08:29:06.828Z,1008.23
2022-08-26T08:30:06.889Z,1008.21
2022-08-26T08:31:06.872Z,1008.23
2022-08-26T08:32:06.854Z,1008.28
2022-08-26T08:33:06.778Z,1008.24
2022-08-26T08:34:06.768Z,1008.22
2022-08-26T08:35:10.781Z,1008.23
2022-08-26T08:36:07.752Z,1008.24
2022-08-26T08:37:08.754Z,1008.21
2022-08-26T08:38:06.840Z,1008.20
2022-08-26T08:39:06.710Z,1008.23
2022-08-26T08:40:06.755Z,1008.20
2022-08-26T08:41:06.691Z,1008.21
2022-08-26T08:42:06.732Z,1008.24
2022-08-26T08:43:06.837Z,1008.21
2022-08-26T08:44:06.652Z,1008.21
2022-08-26T08:45:06.641Z,1008.22
2022-08-26T08:46:06.661Z,1008.21
2022-08-26T08:47:06.624Z,1008.22
2022-08-26T08:48:06.779Z,1008.20
2022-08-26T08:49:06.601Z,1008.24
2022-08-26T08:50:06.594Z,1008.23
2022-08-26T08:51:06.582Z,1008.21
2022-08-26T08:52:06.593Z,1008.21
2022-08-26T08:53:09.057Z,1008.23
2022-08-26T08:54:06.544Z,1008.22
2022-08-26T08:55:10.960Z,1008.23
2022-08-26T08:56:07.565Z,1008.25
2022-08-26T08:57:06.513Z,1008.22
2022-08-26T08:58:06.618Z,1008.23
2022-08-26T08:59:06.497Z,1008.23
2022-08-26T09:00:06.475Z,1008.18
2022-08-26T09:01:06.661Z,1008.24
2022-08-26T09:02:06.634Z,1008.23
2022-08-26T09:03:06.478Z,1008.22
2022-08-26T09:04:06.447Z,1008.24
2022-08-26T09:05:06.428Z,1008.24
2022-08-26T09:06:06.417Z,1008.24
2022-08-26T09:07:06.398Z,1008.26
2022-08-26T09:08:06.627Z,1008.28
2022-08-26T09:09:06.407Z,1008.31
2022-08-26T09:10:06.379Z,1008.29
2022-08-26T09:11:06.842Z,1008.30
2022-08-26T09:12:06.339Z,1008.33
2022-08-26T09:13:06.332Z,1008.28
2022-08-26T09:14:06.340Z,1008.27
2022-08-26T09:15:06.337Z,1008.28
2022-08-26T09:16:06.299Z,1008.32
2022-08-26T09:17:06.360Z,1008.32
2022-08-26T09:18:06.306Z,1008.31
2022-08-26T09:19:06.272Z,1008.34
2022-08-26T09:20:06.283Z,1008.30
2022-08-26T09:21:06.252Z,1008.31
2022-08-26T09:22:09.393Z,1008.31
2022-08-26T09:23:06.310Z,1008.35
2022-08-26T09:24:06.219Z,1008.32
2022-08-26T09:25:06.235Z,1008.34
2022-08-26T09:26:06.191Z,1008.34
2022-08-26T09:27:06.213Z,1008.33
2022-08-26T09:28:06.252Z,1008.38
2022-08-26T09:29:06.166Z,1008.39
2022-08-26T09:30:06.144Z,1008.40
2022-08-26T09:31:10.645Z,1008.37
2022-08-26T09:32:07.115Z,1008.40
2022-08-26T09:33:06.714Z,1008.42
2022-08-26T09:34:06.106Z,1008.41
2022-08-26T09:35:06.251Z,1008.40
2022-08-26T09:36:06.074Z,1008.38
2022-08-26T09:37:06.094Z,1008.42
2022-08-26T09:38:07.019Z,1008.41
2022-08-26T09:39:06.047Z,1008.39
2022-08-26T09:40:06.083Z,1008.38
2022-08-26T09:41:06.034Z,1008.45
2022-08-26T09:42:06.009Z,1008.43
2022-08-26T09:43:06.026Z,1008.40
2022-08-26T09:44:05.996Z,1008.39
2022-08-26T09:45:05.987Z,1008.42
2022-08-26T09:46:05.987Z,1008.40
2022-08-26T09:47:05.961Z,1008.40
2022-08-26T09:48:06.001Z,1008.40
2022-08-26T09:49:05.971Z,1008.41
2022-08-26T09:50:09.611Z,1008.38
2022-08-26T09:51:05.969Z,1008.42
2022-08-26T09:52:05.920Z,1008.41
2022-08-26T09:53:09.797Z,1008.43
2022-08-26T09:54:08.193Z,1008.40
2022-08-26T09:55:05.871Z,1008.41
2022-08-26T09:56:05.850Z,1008.43
2022-08-26T09:57:05.874Z,1008.39
2022-08-26T09:58:08.657Z,1008.39
2022-08-26T09:59:06.512Z,1008.35
2022-08-26T10:00:06.811Z,1008.38
2022-08-26T10:01:05.885Z,1008.39
2022-08-26T10:02:05.866Z,1008.39
2022-08-26T10:03:06.803Z,1008.34
2022-08-26T10:04:05.790Z,1008.32
2022-08-26T10:05:09.534Z,1008.35
2022-08-26T10:06:05.784Z,1008.38
2022-08-26T10:07:05.752Z,1008.35
2022-08-26T10:08:05.727Z,1008.34
2022-08-26T10:09:08.824Z,1008.33
2022-08-26T10:10:05.704Z,1008.32
2022-08-26T10:11:05.693Z,1008.28
2022-08-26T10:12:05.677Z,1008.28
2022-08-26T10:13:05.738Z,1008.28
2022-08-26T10:14:05.658Z,1008.26
2022-08-26T10:15:05.659Z,1008.27
2022-08-26T10:16:05.752Z,1008.23
2022-08-26T10:17:05.692Z,1008.27
2022-08-26T10:18:05.729Z,1008.26
2022-08-26T10:19:05.917Z,1008.20
2022-08-26T10:20:05.677Z,1008.16
2022-08-26T10:21:07.291Z,1008.25
2022-08-26T10:22:05.641Z,1008.20
2022-08-26T10:23:05.590Z,1008.22
2022-08-26T10:24:05.567Z,1008.23
2022-08-26T10:25:05.555Z,1008.21
2022-08-26T10:26:05.528Z,1008.23
2022-08-26T10:27:05.518Z,1008.23
2022-08-26T10:28:05.586Z,1008.19
2022-08-26T10:29:05.520Z,1008.17
2022-08-26T10:30:05.483Z,1008.20
2022-08-26T10:31:05.491Z,1008.20
2022-08-26T10:32:05.478Z,1008.18
2022-08-26T10:33:05.550Z,1008.17
2022-08-26T10:34:05.470Z,1008.16
2022-08-26T10:35:05.563Z,1008.12
2022-08-26T10:36:05.450Z,1008.15
2022-08-26T10:37:15.513Z,1008.17
2022-08-26T10:38:06.573Z,1008.18
2022-08-26T10:39:05.412Z,1008.16
2022-08-26T10:40:05.399Z,1008.13
2022-08-26T10:41:10.360Z,1008.09
2022-08-26T10:42:06.344Z,1008.09
2022-08-26T10:43:11.038Z,1008.12
2022-08-26T10:44:06.354Z,1008.05
2022-08-26T10:45:05.325Z,1008.00
2022-08-26T10:46:05.526Z,1008.03
2022-08-26T10:47:05.473Z,1007.95
2022-08-26T10:48:05.471Z,1007.98
2022-08-26T10:49:06.610Z,1007.96
2022-08-26T10:50:05.415Z,1007.98
2022-08-26T10:51:05.682Z,1008.00
2022-08-26T10:52:05.342Z,1008.00
2022-08-26T10:53:06.310Z,1008.09
2022-08-26T10:54:05.328Z,1007.99
2022-08-26T10:55:05.399Z,1008.00
2022-08-26T10:56:05.383Z,1008.01
2022-08-26T10:57:05.312Z,1008.01
2022-08-26T10:58:08.106Z,1007.97
2022-08-26T10:59:05.190Z,1008.05
2022-08-26T11:00:06.251Z,1008.06
2022-08-26T11:01:10.388Z,1007.99
2022-08-26T11:02:06.279Z,1008.05
2022-08-26T11:03:05.262Z,1008.04
2022-08-26T11:04:05.251Z,1008.01
2022-08-26T11:05:05.140Z,1008.04
2022-08-26T11:06:05.113Z,1008.05
2022-08-26T11:07:05.155Z,1008.04
2022-08-26T11:08:05.099Z,1007.98
2022-08-26T11:09:05.074Z,1008.05
2022-08-26T11:10:05.053Z,1008.05
2022-08-26T11:11:05.093Z,1008.10
2022-08-26T11:12:10.046Z,1008.03
2022-08-26T11:13:06.180Z,1008.07
2022-08-26T11:14:05.044Z,1008.05
2022-08-26T11:15:05.405Z,1008.03
2022-08-26T11:16:05.375Z,1008.07
2022-08-26T11:17:05.090Z,1008.05
2022-08-26T11:18:04.968Z,1008.00
2022-08-26T11:19:04.966Z,1008.05
2022-08-26T11:20:09.248Z,1008.07
2022-08-26T11:21:05.937Z,1008.02
2022-08-26T11:22:04.975Z,1008.06
2022-08-26T11:23:04.948Z,1008.03
2022-08-26T11:24:04.907Z,1008.05
2022-08-26T11:25:04.938Z,1008.04
2022-08-26T11:26:04.888Z,1008.03
2022-08-26T11:27:04.878Z,1008.00
2022-08-26T11:28:04.893Z,1008.02
2022-08-26T11:29:04.877Z,1008.02
2022-08-26T11:30:05.840Z,1008.00
2022-08-26T11:31:04.843Z,1008.02
2022-08-26T11:32:04.888Z,1008.02
2022-08-26T11:33:04.837Z,1008.06
2022-08-26T11:34:04.840Z,1008.03
2022-08-26T11:35:04.789Z,1008.05
2022-08-26T11:36:12.101Z,1007.99
2022-08-26T11:37:05.768Z,1007.96
2022-08-26T11:38:04.754Z,1007.98
2022-08-26T11:39:04.743Z,1007.99
2022-08-26T11:40:04.761Z,1007.99
2022-08-26T11:41:05.095Z,1007.97
2022-08-26T11:42:04.711Z,1007.99
2022-08-26T11:43:04.701Z,1007.94
2022-08-26T11:44:04.686Z,1007.94
2022-08-26T11:45:05.778Z,1007.99
2022-08-26T11:46:04.828Z,1007.97
2022-08-26T11:47:04.653Z,1007.98
2022-08-26T11:48:04.635Z,1007.96
2022-08-26T11:49:04.637Z,1008.05
2022-08-26T11:50:04.638Z,1007.95
2022-08-26T11:51:04.617Z,1007.94
2022-08-26T11:52:04.607Z,1008.00
2022-08-26T11:53:04.590Z,1007.91
2022-08-26T11:54:04.578Z,1007.94
2022-08-26T11:55:04.595Z,1007.96
2022-08-26T11:56:04.554Z,1007.93
2022-08-26T11:57:07.940Z,1007.92
2022-08-26T11:58:05.825Z,1007.92
2022-08-26T11:59:04.521Z,1007.93
2022-08-26T12:00:05.747Z,1007.93
2022-08-26T12:01:04.499Z,1007.94
2022-08-26T12:02:05.490Z,1007.89
2022-08-26T12:03:04.617Z,1007.85
2022-08-26T12:04:04.562Z,1007.86
2022-08-26T12:05:04.458Z,1007.83